createdAt,value
2019-04-01T00:01:39.405Z,4.20
2019-04-01T00:04:08.453Z,4.20
2019-04-01T00:09:06.907Z,4.00
2019-04-01T00:11:35.743Z,4.00
2019-04-01T00:14:04.758Z,3.90
2019-04-01T00:16:33.521Z,3.90
2019-04-01T00:21:32.733Z,3.80
2019-04-01T00:26:30.073Z,3.70
2019-04-01T00:28:59.100Z,3.60
2019-04-01T00:31:27.860Z,3.60
2019-04-01T00:33:56.857Z,3.60
2019-04-01T00:43:55.073Z,3.60
2019-04-01T00:46:24.209Z,3.50
2019-04-01T00:48:52.975Z,3.50
2019-04-01T00:53:50.155Z,3.40
2019-04-01T01:01:15.632Z,3.50
2019-04-01T01:03:44.382Z,3.50
2019-04-01T01:08:41.520Z,3.30
2019-04-01T01:13:38.581Z,3.20
2019-04-01T01:16:07.345Z,3.30
2019-04-01T01:21:04.466Z,3.20
2019-04-01T01:23:33.228Z,3.20
2019-04-01T01:28:30.629Z,3.20
2019-04-01T01:30:59.357Z,3.20
2019-04-01T01:33:28.161Z,3.10
2019-04-01T01:38:25.235Z,3.10
2019-04-01T01:50:47.259Z,3.00
2019-04-01T01:53:16.005Z,2.90
2019-04-01T01:55:44.917Z,2.90
2019-04-01T02:00:42.081Z,2.90
2019-04-01T02:03:10.834Z,2.90
2019-04-01T02:05:39.606Z,2.80
2019-04-01T02:13:05.069Z,2.70
2019-04-01T02:20:31.053Z,2.60
2019-04-01T02:22:59.799Z,2.70
2019-04-01T02:27:56.897Z,2.70
2019-04-01T02:30:25.662Z,2.70
2019-04-01T02:32:54.414Z,2.80
2019-04-01T02:35:23.254Z,2.80
2019-04-01T02:40:22.042Z,2.70
2019-04-01T02:42:50.951Z,2.60
2019-04-01T02:50:16.382Z,2.50
2019-04-01T02:52:45.198Z,2.50
2019-04-01T02:55:14.033Z,2.40
2019-04-01T02:57:42.854Z,2.40
2019-04-01T03:02:39.932Z,2.30
2019-04-01T03:05:08.816Z,2.30
2019-04-01T03:07:37.584Z,2.30
2019-04-01T03:12:34.983Z,2.30
2019-04-01T03:15:04.062Z,2.40
2019-04-01T03:17:32.889Z,2.40
2019-04-01T03:20:01.738Z,2.40
2019-04-01T03:22:30.497Z,2.50
2019-04-01T03:27:27.579Z,2.40
2019-04-01T03:29:56.310Z,2.40
2019-04-01T03:32:25.091Z,2.40
2019-04-01T03:39:50.720Z,2.50
2019-04-01T03:42:19.488Z,2.40
2019-04-01T03:47:16.737Z,2.30
2019-04-01T03:52:13.921Z,2.20
2019-04-01T03:57:11.049Z,2.10
2019-04-01T03:59:39.799Z,2.10
2019-04-01T04:04:36.882Z,2.10
2019-04-01T04:07:05.883Z,2.10
2019-04-01T04:09:34.804Z,2.00
2019-04-01T04:12:03.631Z,2.00
2019-04-01T04:21:57.458Z,1.90
2019-04-01T04:24:26.220Z,1.90
2019-04-01T04:26:55.053Z,1.90
2019-04-01T04:31:52.383Z,1.90
2019-04-01T04:34:21.141Z,1.90
2019-04-01T04:46:43.306Z,1.80
2019-04-01T04:49:12.141Z,1.80
2019-04-01T04:51:40.898Z,1.80
2019-04-01T04:56:38.262Z,1.80
2019-04-01T04:59:07.030Z,1.80
2019-04-01T05:01:35.859Z,1.80
2019-04-01T05:06:33.104Z,1.80
2019-04-01T05:16:27.097Z,1.80
2019-04-01T05:18:55.937Z,1.80
2019-04-01T05:23:55.833Z,1.80
2019-04-01T05:29:07.447Z,1.70
2019-04-01T05:31:38.129Z,1.80
2019-04-01T05:34:08.237Z,1.90
2019-04-01T05:36:37.161Z,2.00
2019-04-01T05:41:35.725Z,2.20
2019-04-01T05:49:01.422Z,2.30
2019-04-01T05:51:30.365Z,2.40
2019-04-01T05:53:59.277Z,2.40
2019-04-01T05:56:28.561Z,2.50
2019-04-01T06:03:58.686Z,2.60
2019-04-01T06:06:27.849Z,3.00
2019-04-01T06:08:56.887Z,3.00
2019-04-01T06:11:25.682Z,3.10
2019-04-01T06:16:22.913Z,3.40
2019-04-01T06:18:51.837Z,3.40
2019-04-01T06:26:17.950Z,3.90
2019-04-01T06:28:47.137Z,4.10
2019-04-01T06:31:16.070Z,4.20
2019-04-01T06:33:44.917Z,4.40
2019-04-01T06:36:13.745Z,4.50
2019-04-01T06:38:42.572Z,4.70
2019-04-01T06:41:11.491Z,4.80
2019-04-01T06:46:08.679Z,5.20
2019-04-01T06:48:37.683Z,5.40
2019-04-01T06:51:06.645Z,5.70
2019-04-01T06:53:35.535Z,6.00
2019-04-01T06:58:33.122Z,6.70
2019-04-01T07:03:30.562Z,8.80
2019-04-01T07:05:59.454Z,10.90
2019-04-01T07:08:28.210Z,12.50
2019-04-01T07:13:25.517Z,14.30
2019-04-01T07:15:54.351Z,15.10
2019-04-01T07:18:24.041Z,16.00
2019-04-01T07:20:52.945Z,16.80
2019-04-01T07:23:21.957Z,16.50
2019-04-01T07:25:51.146Z,16.30
2019-04-01T07:28:20.028Z,17.10
2019-04-01T07:30:48.785Z,17.20
2019-04-01T07:33:17.697Z,17.50
2019-04-01T07:35:46.915Z,17.40
2019-04-01T07:38:15.937Z,17.80
2019-04-01T07:40:44.837Z,17.90
2019-04-01T07:43:15.189Z,18.30
2019-04-01T07:45:44.261Z,18.20
2019-04-01T07:48:13.153Z,18.30
2019-04-01T07:50:43.298Z,18.30
2019-04-01T07:53:12.283Z,17.50
2019-04-01T07:55:41.302Z,16.40
2019-04-01T07:58:10.602Z,15.00
2019-04-01T08:00:39.645Z,15.00
2019-04-01T08:03:08.610Z,15.00
2019-04-01T08:05:37.433Z,16.70
2019-04-01T08:08:06.323Z,16.80
2019-04-01T08:10:35.458Z,16.70
2019-04-01T08:13:04.342Z,16.80
2019-04-01T08:15:33.073Z,17.30
2019-04-01T08:18:01.824Z,17.40
2019-04-01T08:20:30.821Z,16.20
2019-04-01T08:22:59.561Z,16.20
2019-04-01T08:25:28.310Z,15.10
2019-04-01T08:27:57.203Z,14.90
2019-04-01T08:30:29.089Z,14.00
2019-04-01T08:33:00.361Z,14.00
2019-04-01T08:35:29.201Z,13.50
2019-04-01T08:37:57.941Z,13.50
2019-04-01T08:40:26.830Z,13.60
2019-04-01T08:42:55.734Z,13.50
2019-04-01T08:45:24.490Z,13.20
2019-04-01T08:47:53.889Z,13.10
2019-04-01T08:50:23.073Z,13.00
2019-04-01T08:52:51.884Z,13.00
2019-04-01T08:55:20.707Z,13.20
2019-04-01T08:57:49.766Z,13.10
2019-04-01T09:00:18.772Z,12.90
2019-04-01T09:02:47.677Z,12.90
2019-04-01T09:05:16.568Z,12.90
2019-04-01T09:07:45.390Z,13.20
2019-04-01T09:10:14.373Z,13.30
2019-04-01T09:12:43.729Z,13.20
2019-04-01T09:15:12.735Z,13.40
2019-04-01T09:17:41.654Z,13.50
2019-04-01T09:20:10.467Z,13.50
2019-04-01T09:22:39.468Z,13.50
2019-04-01T09:25:10.266Z,13.50
2019-04-01T09:27:39.066Z,13.40
2019-04-01T09:30:09.208Z,13.40
2019-04-01T09:32:38.018Z,13.30
2019-04-01T09:35:07.002Z,13.50
2019-04-01T09:37:36.213Z,13.40
2019-04-01T09:42:33.670Z,13.30
2019-04-01T09:45:02.424Z,13.40
2019-04-01T09:47:31.163Z,13.40
2019-04-01T09:50:00.019Z,13.40
2019-04-01T09:52:28.766Z,13.50
2019-04-01T09:54:57.523Z,13.50
2019-04-01T09:57:26.257Z,13.60
2019-04-01T09:59:55.078Z,13.70
2019-04-01T10:02:31.700Z,13.70
2019-04-01T10:09:51.209Z,13.60
2019-04-01T10:17:16.554Z,13.60
2019-04-01T10:19:45.385Z,13.70
2019-04-01T10:22:14.229Z,13.70
2019-04-01T10:24:42.969Z,13.70
2019-04-01T10:27:11.716Z,13.90
2019-04-01T10:29:40.465Z,14.10
2019-04-01T10:32:09.417Z,14.20
2019-04-01T10:34:38.184Z,14.40
2019-04-01T10:37:06.906Z,14.30
2019-04-01T10:39:35.817Z,14.20
2019-04-01T10:42:04.699Z,14.30
2019-04-01T10:44:33.677Z,14.40
2019-04-01T10:47:02.419Z,14.60
2019-04-01T10:49:32.287Z,14.30
2019-04-01T10:52:01.270Z,14.30
2019-04-01T10:59:27.251Z,14.50
2019-04-01T11:04:24.445Z,14.60
2019-04-01T11:09:21.842Z,14.70
2019-04-01T11:19:18.433Z,14.90
2019-04-01T11:21:47.198Z,15.00
2019-04-01T11:24:15.945Z,15.00
2019-04-01T11:26:44.689Z,14.90
2019-04-01T11:29:13.425Z,14.90
2019-04-01T11:31:42.242Z,14.80
2019-04-01T11:34:11.041Z,14.90
2019-04-01T11:39:09.774Z,15.10
2019-04-01T11:41:38.622Z,15.10
2019-04-01T11:44:07.473Z,15.30
2019-04-01T11:51:38.557Z,15.20
2019-04-01T11:54:03.361Z,15.20
2019-04-01T11:56:32.187Z,15.30
2019-04-01T11:59:00.994Z,15.30
2019-04-01T12:03:58.281Z,15.40
2019-04-01T12:08:55.466Z,15.40
2019-04-01T12:11:24.284Z,15.40
2019-04-01T12:13:53.131Z,15.40
2019-04-01T12:21:18.535Z,15.70
2019-04-01T12:23:47.509Z,15.70
2019-04-01T12:26:17.618Z,15.70
2019-04-01T12:28:46.669Z,15.70
2019-04-01T12:31:15.780Z,15.60
2019-04-01T12:33:44.612Z,15.60
2019-04-01T12:38:41.801Z,15.90
2019-04-01T12:43:39.009Z,16.10
2019-04-01T12:46:08.790Z,16.20
2019-04-01T12:56:04.004Z,16.10
2019-04-01T12:58:36.010Z,16.20
2019-04-01T13:01:05.149Z,16.20
2019-04-01T13:03:33.905Z,16.20
2019-04-01T13:08:30.966Z,16.40
2019-04-01T13:10:59.735Z,16.40
2019-04-01T13:13:28.525Z,16.40
2019-04-01T13:15:57.985Z,16.30
2019-04-01T13:20:55.089Z,16.30
2019-04-01T13:23:23.853Z,16.20
2019-04-01T13:25:52.673Z,16.30
2019-04-01T13:28:21.758Z,16.40
2019-04-01T13:30:50.523Z,16.40
2019-04-01T13:33:19.285Z,12.10
2019-04-01T13:35:48.220Z,16.60
2019-04-01T13:38:17.742Z,16.50
2019-04-01T13:40:46.588Z,16.50
2019-04-01T13:43:17.073Z,16.50
2019-04-01T13:50:42.609Z,16.50
2019-04-01T13:55:39.666Z,16.30
2019-04-01T13:58:12.347Z,16.30
2019-04-01T14:00:41.274Z,16.50
2019-04-01T14:03:11.365Z,16.50
2019-04-01T14:05:40.314Z,16.60
2019-04-01T14:08:09.125Z,16.60
2019-04-01T14:13:19.676Z,16.70
2019-04-01T14:20:46.790Z,16.80
2019-04-01T14:23:15.561Z,16.80
2019-04-01T14:25:44.470Z,16.80
2019-04-01T14:28:13.256Z,16.80
2019-04-01T14:30:42.017Z,16.90
2019-04-01T14:33:10.843Z,16.90
2019-04-01T14:43:04.937Z,16.70
2019-04-01T14:48:02.153Z,16.80
2019-04-01T14:50:31.076Z,16.90
2019-04-01T14:52:59.889Z,16.90
2019-04-01T14:55:28.686Z,16.80
2019-04-01T14:58:00.213Z,16.70
2019-04-01T15:00:27.969Z,16.70
2019-04-01T15:02:56.737Z,16.70
2019-04-01T15:05:25.573Z,16.60
2019-04-01T15:07:54.317Z,16.70
2019-04-01T15:10:23.216Z,16.70
2019-04-01T15:20:19.339Z,16.70
2019-04-01T15:22:48.137Z,16.70
2019-04-01T15:25:17.034Z,16.80
2019-04-01T15:27:45.837Z,16.80
2019-04-01T15:32:43.441Z,16.80
2019-04-01T15:37:40.765Z,16.60
2019-04-01T15:42:37.980Z,16.70
2019-04-01T15:45:07.099Z,16.70
2019-04-01T15:50:05.013Z,16.80
2019-04-01T15:52:34.616Z,16.80
2019-04-01T15:55:04.197Z,16.60
2019-04-01T15:57:32.933Z,16.60
2019-04-01T16:00:03.396Z,16.60
2019-04-01T16:02:32.430Z,16.60
2019-04-01T16:05:01.266Z,16.60
2019-04-01T16:07:30.321Z,16.40
2019-04-01T16:09:59.054Z,16.30
2019-04-01T16:12:27.813Z,16.40
2019-04-01T16:14:56.561Z,16.30
2019-04-01T16:17:27.261Z,16.40
2019-04-01T16:19:56.020Z,16.30
2019-04-01T16:22:24.911Z,16.40
2019-04-01T16:24:53.658Z,16.40
2019-04-01T16:27:22.491Z,16.40
2019-04-01T16:29:51.273Z,16.30
2019-04-01T16:34:48.415Z,16.20
2019-04-01T16:37:17.227Z,16.20
2019-04-01T16:39:46.114Z,16.20
2019-04-01T16:42:14.962Z,16.20
2019-04-01T16:44:44.082Z,12.80
2019-04-01T16:47:14.538Z,16.20
2019-04-01T16:49:43.328Z,16.20
2019-04-01T16:52:15.301Z,16.10
2019-04-01T16:54:46.366Z,16.20
2019-04-01T16:57:15.130Z,16.10
2019-04-01T16:59:43.881Z,16.00
2019-04-01T17:04:45.970Z,15.90
2019-04-01T17:07:13.412Z,15.80
2019-04-01T17:09:42.345Z,15.90
2019-04-01T17:12:11.262Z,15.80
2019-04-01T17:14:40.110Z,15.70
2019-04-01T17:17:09.005Z,15.60
2019-04-01T17:19:37.881Z,15.70
2019-04-01T17:22:06.785Z,15.50
2019-04-01T17:24:35.639Z,15.40
2019-04-01T17:27:12.823Z,15.20
2019-04-01T17:29:44.806Z,15.10
2019-04-01T17:34:42.081Z,14.90
2019-04-01T17:37:11.037Z,14.80
2019-04-01T17:39:39.859Z,14.70
2019-04-01T17:42:08.755Z,14.60
2019-04-01T17:49:35.544Z,14.10
2019-04-01T17:52:05.106Z,14.00
2019-04-01T17:54:34.128Z,13.80
2019-04-01T17:59:31.474Z,13.40
2019-04-01T18:02:00.400Z,13.20
2019-04-01T18:04:30.939Z,13.00
2019-04-01T18:11:56.561Z,12.60
2019-04-01T18:14:25.322Z,12.50
2019-04-01T18:19:22.598Z,12.30
2019-04-01T18:21:51.355Z,12.20
2019-04-01T18:24:20.277Z,12.00
2019-04-01T18:26:49.092Z,11.90
2019-04-01T18:29:17.887Z,11.90
2019-04-01T18:31:46.702Z,11.70
2019-04-01T18:34:15.465Z,11.70
2019-04-01T18:36:44.265Z,11.60
2019-04-01T18:39:13.017Z,11.50
2019-04-01T18:41:41.829Z,11.40
2019-04-01T18:44:10.697Z,11.30
2019-04-01T18:46:39.517Z,11.20
2019-04-01T18:51:36.715Z,11.10
2019-04-01T18:54:05.615Z,11.00
2019-04-01T18:56:34.436Z,10.90
2019-04-01T19:01:31.708Z,10.90
2019-04-01T19:04:00.539Z,10.90
2019-04-01T19:11:27.769Z,10.70
2019-04-01T19:13:56.623Z,10.60
2019-04-01T19:16:25.510Z,10.50
2019-04-01T19:18:54.297Z,10.60
2019-04-01T19:21:23.061Z,10.70
2019-04-01T19:23:51.849Z,10.80
2019-04-01T19:26:20.694Z,11.00
2019-04-01T19:28:49.522Z,11.00
2019-04-01T19:31:18.538Z,11.00
2019-04-01T19:33:47.695Z,10.90
2019-04-01T19:36:16.594Z,11.00
2019-04-01T19:38:45.411Z,11.00
2019-04-01T19:41:14.454Z,11.00
2019-04-01T19:43:45.120Z,11.10
2019-04-01T19:48:42.567Z,11.20
2019-04-01T19:51:12.928Z,11.30
2019-04-01T19:53:41.669Z,11.30
2019-04-01T19:56:10.429Z,11.40
2019-04-01T20:01:07.655Z,11.30
2019-04-01T20:03:36.519Z,11.30
2019-04-01T20:06:07.426Z,11.50
2019-04-01T20:08:35.985Z,11.40
2019-04-01T20:11:04.923Z,11.40
2019-04-01T20:13:33.682Z,11.40
2019-04-01T20:16:02.533Z,11.40
2019-04-01T20:18:31.762Z,11.50
2019-04-01T20:21:00.635Z,11.50
2019-04-01T20:23:29.394Z,11.50
2019-04-01T20:31:01.175Z,11.60
2019-04-01T20:33:31.966Z,11.50
2019-04-01T20:36:06.308Z,11.40
2019-04-01T20:38:36.024Z,11.20
2019-04-01T20:41:04.904Z,11.00
2019-04-01T20:43:33.839Z,10.80
2019-04-01T20:46:02.611Z,10.70
2019-04-01T20:48:32.283Z,10.50
2019-04-01T20:51:02.086Z,10.40
2019-04-01T20:53:30.846Z,10.30
2019-04-01T20:55:59.662Z,10.30
2019-04-01T20:58:28.469Z,10.20
2019-04-01T21:00:57.279Z,10.10
2019-04-01T21:03:26.377Z,10.00
2019-04-01T21:05:55.429Z,10.00
2019-04-01T21:08:24.269Z,9.90
2019-04-01T21:10:53.078Z,9.90
2019-04-01T21:13:25.062Z,9.80
2019-04-01T21:15:54.142Z,9.80
2019-04-01T21:20:51.433Z,9.70
2019-04-01T21:23:20.221Z,9.60
2019-04-01T21:25:48.985Z,9.60
2019-04-01T21:28:17.767Z,9.50
2019-04-01T21:30:46.589Z,9.40
2019-04-01T21:33:15.357Z,9.40
2019-04-01T21:35:44.181Z,9.30
2019-04-01T21:38:12.929Z,9.30
2019-04-01T21:40:41.722Z,9.20
2019-04-01T21:43:10.557Z,9.20
2019-04-01T21:45:39.378Z,9.20
2019-04-01T21:50:36.605Z,9.10
2019-04-01T21:53:05.441Z,9.00
2019-04-01T21:58:02.969Z,8.90
2019-04-01T22:00:45.630Z,8.90
2019-04-01T22:03:14.547Z,8.80
2019-04-01T22:08:12.716Z,8.70
2019-04-01T22:10:41.525Z,8.70
2019-04-01T22:13:10.405Z,8.70
2019-04-01T22:15:39.173Z,8.60
2019-04-01T22:18:08.005Z,8.60
2019-04-01T22:20:37.009Z,8.50
2019-04-01T22:23:06.281Z,8.50
2019-04-01T22:28:03.965Z,8.40
2019-04-01T22:30:32.738Z,8.30
2019-04-01T22:33:01.691Z,8.30
2019-04-01T22:35:38.548Z,8.30
2019-04-01T22:38:03.348Z,8.30
2019-04-01T22:40:31.646Z,8.20
2019-04-01T22:43:00.596Z,8.20
2019-04-01T22:45:29.373Z,8.10
2019-04-01T22:50:26.678Z,8.10
2019-04-01T22:52:55.551Z,8.00
2019-04-01T22:55:24.399Z,7.90
2019-04-01T22:57:53.307Z,8.00
2019-04-01T23:02:51.115Z,7.90
2019-04-01T23:12:44.981Z,8.00
2019-04-01T23:15:15.136Z,7.90
2019-04-01T23:17:44.214Z,7.90
2019-04-01T23:22:41.518Z,7.90
2019-04-01T23:25:10.441Z,7.80
2019-04-01T23:27:39.210Z,7.70
2019-04-01T23:30:10.804Z,7.60
2019-04-01T23:32:42.140Z,7.50
2019-04-01T23:35:12.385Z,7.50
2019-04-01T23:37:41.685Z,7.40
2019-04-01T23:40:10.531Z,7.30
2019-04-01T23:42:39.271Z,7.30
2019-04-01T23:45:09.397Z,7.30
2019-04-01T23:47:38.187Z,7.20
2019-04-01T23:50:09.148Z,7.20
2019-04-01T23:52:38.417Z,7.20
2019-04-01T23:55:08.482Z,7.20
2019-04-01T23:57:37.234Z,7.20
